createdAt,value
2022-08-26T00:00:03.627Z,995.53
2022-08-26T00:00:35.084Z,995.53
2022-08-26T00:01:08.127Z,995.53
2022-08-26T00:01:36.105Z,995.33
2022-08-26T00:01:55.107Z,995.33
2022-08-26T00:02:27.153Z,995.33
2022-08-26T00:02:59.962Z,995.63
2022-08-26T00:03:31.215Z,995.63
2022-08-26T00:04:03.489Z,995.63
2022-08-26T00:04:35.040Z,995.43
2022-08-26T00:05:07.545Z,995.43
2022-08-26T00:05:35.577Z,995.53
2022-08-26T00:05:55.171Z,995.53
2022-08-26T00:06:27.220Z,995.53
2022-08-26T00:06:59.175Z,995.53
2022-08-26T00:07:31.912Z,995.53
2022-08-26T00:08:03.442Z,995.73
2022-08-26T00:08:35.074Z,995.33
2022-08-26T00:09:08.032Z,995.33
2022-08-26T00:09:37.306Z,995.63
2022-08-26T00:09:55.357Z,995.63
2022-08-26T00:10:26.961Z,995.63
2022-08-26T00:10:59.971Z,995.63
2022-08-26T00:11:31.098Z,995.63
2022-08-26T00:12:03.447Z,995.53
2022-08-26T00:12:37.564Z,995.53
2022-08-26T00:13:08.191Z,995.53
2022-08-26T00:13:36.707Z,995.63
2022-08-26T00:13:59.126Z,995.63
2022-08-26T00:14:30.769Z,995.63
2022-08-26T00:14:59.095Z,995.73
2022-08-26T00:15:31.136Z,995.73
2022-08-26T00:16:03.505Z,995.53
2022-08-26T00:16:35.843Z,995.53
2022-08-26T00:17:08.637Z,995.53
2022-08-26T00:17:37.108Z,995.53
2022-08-26T00:17:55.029Z,995.53
2022-08-26T00:18:27.585Z,995.53
2022-08-26T00:18:59.112Z,995.73
2022-08-26T00:19:31.133Z,995.73
2022-08-26T00:20:03.376Z,995.53
2022-08-26T00:20:34.969Z,995.53
2022-08-26T00:21:07.846Z,995.53
2022-08-26T00:21:35.320Z,995.73
2022-08-26T00:21:55.035Z,995.73
2022-08-26T00:22:27.018Z,995.73
2022-08-26T00:22:59.003Z,995.43
2022-08-26T00:23:31.615Z,995.43
2022-08-26T00:24:03.387Z,995.63
2022-08-26T00:24:36.439Z,995.53
2022-08-26T00:25:07.036Z,995.53
2022-08-26T00:25:36.852Z,995.53
2022-08-26T00:25:55.032Z,995.53
2022-08-26T00:26:29.244Z,995.53
2022-08-26T00:26:58.963Z,995.73
2022-08-26T00:27:31.151Z,995.73
2022-08-26T00:28:03.454Z,995.73
2022-08-26T00:28:35.989Z,995.63
2022-08-26T00:29:07.335Z,995.63
2022-08-26T00:29:37.396Z,995.63
2022-08-26T00:29:55.056Z,995.63
2022-08-26T00:30:27.132Z,995.63
2022-08-26T00:30:59.094Z,995.83
2022-08-26T00:31:31.181Z,995.83
2022-08-26T00:32:05.041Z,995.53
2022-08-26T00:32:35.216Z,995.53
2022-08-26T00:33:07.293Z,995.53
2022-08-26T00:33:36.557Z,995.73
2022-08-26T00:33:55.047Z,995.73
2022-08-26T00:34:27.082Z,995.73
2022-08-26T00:34:59.232Z,995.63
2022-08-26T00:35:31.023Z,995.63
2022-08-26T00:36:03.610Z,995.43
2022-08-26T00:36:35.162Z,995.94
2022-08-26T00:37:08.956Z,995.94
2022-08-26T00:37:36.986Z,995.53
2022-08-26T00:37:55.023Z,995.53
2022-08-26T00:38:28.184Z,995.53
2022-08-26T00:39:00.873Z,995.63
2022-08-26T00:39:31.089Z,995.63
2022-08-26T00:40:03.525Z,995.63
2022-08-26T00:40:35.461Z,995.43
2022-08-26T00:41:07.482Z,995.43
2022-08-26T00:41:35.328Z,995.73
2022-08-26T00:41:55.546Z,995.73
2022-08-26T00:42:27.841Z,995.73
2022-08-26T00:42:59.196Z,995.73
2022-08-26T00:43:31.176Z,995.73
2022-08-26T00:44:04.468Z,995.43
2022-08-26T00:44:35.885Z,995.53
2022-08-26T00:45:10.267Z,995.53
2022-08-26T00:45:35.495Z,995.43
2022-08-26T00:45:56.932Z,995.43
2022-08-26T00:46:27.114Z,995.43
2022-08-26T00:46:59.100Z,995.83
2022-08-26T00:47:31.339Z,995.83
2022-08-26T00:48:03.844Z,995.73
2022-08-26T00:48:34.922Z,995.73
2022-08-26T00:49:11.894Z,995.73
2022-08-26T00:49:38.178Z,995.43
2022-08-26T00:49:55.068Z,995.43
2022-08-26T00:50:27.226Z,995.43
2022-08-26T00:50:59.056Z,995.53
2022-08-26T00:51:32.092Z,995.53
2022-08-26T00:52:03.427Z,995.63
2022-08-26T00:52:34.979Z,995.73
2022-08-26T00:53:07.157Z,995.73
2022-08-26T00:53:36.601Z,995.73
2022-08-26T00:53:54.949Z,995.73
2022-08-26T00:54:27.342Z,995.73
2022-08-26T00:54:59.064Z,995.73
2022-08-26T00:55:34.517Z,995.73
2022-08-26T00:56:03.519Z,995.63
2022-08-26T00:56:36.853Z,995.53
2022-08-26T00:57:16.068Z,995.53
2022-08-26T00:57:35.257Z,995.63
2022-08-26T00:57:54.950Z,995.63
2022-08-26T00:58:27.014Z,995.63
2022-08-26T00:58:59.071Z,995.53
2022-08-26T00:59:32.739Z,995.53
2022-08-26T01:00:03.306Z,995.53
2022-08-26T01:00:35.286Z,995.53
2022-08-26T01:01:07.017Z,995.53
2022-08-26T01:01:36.987Z,995.53
2022-08-26T01:01:54.977Z,995.53
2022-08-26T01:02:27.001Z,995.53
2022-08-26T01:02:59.047Z,995.73
2022-08-26T01:03:31.294Z,995.73
2022-08-26T01:04:03.117Z,995.33
2022-08-26T01:04:34.950Z,995.73
2022-08-26T01:05:06.930Z,995.73
2022-08-26T01:05:35.193Z,995.63
2022-08-26T01:05:54.869Z,995.63
2022-08-26T01:06:26.935Z,995.63
2022-08-26T01:06:59.072Z,995.43
2022-08-26T01:07:31.362Z,995.43
2022-08-26T01:08:03.745Z,995.63
2022-08-26T01:08:35.143Z,995.73
2022-08-26T01:09:07.258Z,995.73
2022-08-26T01:09:35.167Z,995.53
2022-08-26T01:09:54.883Z,995.53
2022-08-26T01:10:27.006Z,995.53
2022-08-26T01:10:59.039Z,995.83
2022-08-26T01:11:31.977Z,995.83
2022-08-26T01:12:03.832Z,995.43
2022-08-26T01:12:36.035Z,995.43
2022-08-26T01:13:07.548Z,995.43
2022-08-26T01:13:36.574Z,995.53
2022-08-26T01:13:56.063Z,995.53
2022-08-26T01:14:28.495Z,995.53
2022-08-26T01:14:59.008Z,995.53
2022-08-26T01:15:32.904Z,995.53
2022-08-26T01:16:03.439Z,995.53
2022-08-26T01:16:34.784Z,995.63
2022-08-26T01:17:07.228Z,995.63
2022-08-26T01:17:36.743Z,995.53
2022-08-26T01:17:55.082Z,995.53
2022-08-26T01:18:29.746Z,995.53
2022-08-26T01:18:59.576Z,995.43
2022-08-26T01:19:31.683Z,995.43
2022-08-26T01:20:03.510Z,995.43
2022-08-26T01:20:37.164Z,995.43
2022-08-26T01:21:07.262Z,995.43
2022-08-26T01:21:35.114Z,995.53
2022-08-26T01:21:56.261Z,995.53
2022-08-26T01:22:28.619Z,995.53
2022-08-26T01:22:59.010Z,995.63
2022-08-26T01:23:32.009Z,995.63
2022-08-26T01:24:03.948Z,995.53
2022-08-26T01:24:35.675Z,995.33
2022-08-26T01:25:07.573Z,995.33
2022-08-26T01:25:35.399Z,995.63
2022-08-26T01:25:55.474Z,995.63
2022-08-26T01:26:26.989Z,995.63
2022-08-26T01:26:59.020Z,995.63
2022-08-26T01:27:32.484Z,995.63
2022-08-26T01:28:03.380Z,995.33
2022-08-26T01:28:35.005Z,995.63
2022-08-26T01:29:07.182Z,995.63
2022-08-26T01:29:37.290Z,995.53
2022-08-26T01:29:54.874Z,995.53
2022-08-26T01:30:27.003Z,995.53
2022-08-26T01:30:59.188Z,995.53
2022-08-26T01:31:31.546Z,995.53
2022-08-26T01:32:03.227Z,995.53
2022-08-26T01:32:35.180Z,995.73
2022-08-26T01:33:07.105Z,995.73
2022-08-26T01:33:42.228Z,995.63
2022-08-26T01:33:55.002Z,995.63
2022-08-26T01:34:26.960Z,995.63
2022-08-26T01:34:59.714Z,995.53
2022-08-26T01:35:30.910Z,995.53
2022-08-26T01:36:03.361Z,995.73
2022-08-26T01:36:34.919Z,995.53
2022-08-26T01:37:08.631Z,995.53
2022-08-26T01:37:40.758Z,995.73
2022-08-26T01:38:10.866Z,995.73
2022-08-26T01:38:35.298Z,995.73
2022-08-26T01:38:59.792Z,995.73
2022-08-26T01:39:30.860Z,995.73
2022-08-26T01:40:03.753Z,995.53
2022-08-26T01:40:34.952Z,995.73
2022-08-26T01:41:14.151Z,995.73
2022-08-26T01:41:35.113Z,995.63
2022-08-26T01:41:54.900Z,995.63
2022-08-26T01:42:28.555Z,995.63
2022-08-26T01:42:59.063Z,995.53
2022-08-26T01:43:30.946Z,995.53
2022-08-26T01:44:03.359Z,995.73
2022-08-26T01:44:34.999Z,995.53
2022-08-26T01:45:07.571Z,995.53
2022-08-26T01:45:35.261Z,995.63
2022-08-26T01:45:55.912Z,995.63
2022-08-26T01:46:26.919Z,995.63
2022-08-26T01:46:59.106Z,995.63
2022-08-26T01:47:30.934Z,995.63
2022-08-26T01:48:03.358Z,995.73
2022-08-26T01:48:36.252Z,995.63
2022-08-26T01:49:07.151Z,995.63
2022-08-26T01:49:35.134Z,995.53
2022-08-26T01:49:55.126Z,995.53
2022-08-26T01:50:28.067Z,995.53
2022-08-26T01:50:59.446Z,995.63
2022-08-26T01:51:30.930Z,995.63
2022-08-26T01:52:04.241Z,995.73
2022-08-26T01:52:35.148Z,995.73
2022-08-26T01:53:07.620Z,995.73
2022-08-26T01:53:35.305Z,995.63
2022-08-26T01:53:54.885Z,995.63
2022-08-26T01:54:27.036Z,995.63
2022-08-26T01:54:59.102Z,995.73
2022-08-26T01:55:33.062Z,995.73
2022-08-26T01:56:03.382Z,995.63
2022-08-26T01:56:37.352Z,995.53
2022-08-26T01:57:07.441Z,995.53
2022-08-26T01:57:35.358Z,995.73
2022-08-26T01:57:56.314Z,995.73
2022-08-26T01:58:27.005Z,995.73
2022-08-26T01:58:59.057Z,995.73
2022-08-26T01:59:31.562Z,995.73
2022-08-26T02:00:03.533Z,995.63
2022-08-26T02:00:36.412Z,995.53
2022-08-26T02:01:07.207Z,995.53
2022-08-26T02:01:36.404Z,995.73
2022-08-26T02:01:54.953Z,995.73
2022-08-26T02:02:26.979Z,995.73
2022-08-26T02:02:58.880Z,995.73
2022-08-26T02:03:30.979Z,995.73
2022-08-26T02:04:03.875Z,995.63
2022-08-26T02:04:35.168Z,995.83
2022-08-26T02:05:07.022Z,995.83
2022-08-26T02:05:35.187Z,995.63
2022-08-26T02:05:54.970Z,995.63
2022-08-26T02:06:28.817Z,995.63
2022-08-26T02:06:59.119Z,995.53
2022-08-26T02:07:30.961Z,995.53
2022-08-26T02:08:02.979Z,995.53
2022-08-26T02:08:35.315Z,995.73
2022-08-26T02:09:07.221Z,995.73
2022-08-26T02:09:50.826Z,995.63
2022-08-26T02:10:11.019Z,995.63
2022-08-26T02:10:35.156Z,995.53
2022-08-26T02:10:58.986Z,995.53
2022-08-26T02:11:31.892Z,995.53
2022-08-26T02:12:03.261Z,995.63
2022-08-26T02:12:36.103Z,995.83
2022-08-26T02:13:07.599Z,995.83
2022-08-26T02:13:36.394Z,995.63
2022-08-26T02:13:54.868Z,995.63
2022-08-26T02:14:27.131Z,995.63
2022-08-26T02:14:59.849Z,995.73
2022-08-26T02:15:31.695Z,995.73
2022-08-26T02:16:03.367Z,995.63
2022-08-26T02:16:36.328Z,995.94
2022-08-26T02:17:07.861Z,995.94
2022-08-26T02:17:36.646Z,995.94
2022-08-26T02:17:54.843Z,995.94
2022-08-26T02:18:27.663Z,995.94
2022-08-26T02:18:58.994Z,995.73
2022-08-26T02:19:32.537Z,995.73
2022-08-26T02:20:03.178Z,995.73
2022-08-26T02:20:35.662Z,995.63
2022-08-26T02:21:07.082Z,995.63
2022-08-26T02:21:35.182Z,995.53
2022-08-26T02:21:54.876Z,995.53
2022-08-26T02:22:27.006Z,995.53
2022-08-26T02:22:59.929Z,995.73
2022-08-26T02:23:30.972Z,995.73
2022-08-26T02:24:03.334Z,995.63
2022-08-26T02:24:34.914Z,995.63
2022-08-26T02:25:08.843Z,995.63
2022-08-26T02:25:35.475Z,995.63
2022-08-26T02:25:54.843Z,995.63
2022-08-26T02:26:27.272Z,995.63
2022-08-26T02:26:59.190Z,995.83
2022-08-26T02:27:32.375Z,995.83
2022-08-26T02:28:03.370Z,995.94
2022-08-26T02:28:34.669Z,995.73
2022-08-26T02:29:07.780Z,995.73
2022-08-26T02:29:36.707Z,995.83
2022-08-26T02:29:55.009Z,995.83
2022-08-26T02:30:27.101Z,995.83
2022-08-26T02:31:00.685Z,995.83
2022-08-26T02:31:31.831Z,995.83
2022-08-26T02:32:03.230Z,995.83
2022-08-26T02:32:37.253Z,995.63
2022-08-26T02:33:07.139Z,995.63
2022-08-26T02:33:35.134Z,995.63
2022-08-26T02:33:54.923Z,995.63
2022-08-26T02:34:28.202Z,995.63
2022-08-26T02:34:59.095Z,995.73
2022-08-26T02:35:30.902Z,995.73
2022-08-26T02:36:03.571Z,995.94
2022-08-26T02:36:35.634Z,995.63
2022-08-26T02:37:07.087Z,995.63
2022-08-26T02:37:36.965Z,995.94
2022-08-26T02:37:54.889Z,995.94
2022-08-26T02:38:27.020Z,995.94
2022-08-26T02:38:59.352Z,995.83
2022-08-26T02:39:30.813Z,995.83
2022-08-26T02:40:03.472Z,995.53
2022-08-26T02:40:34.927Z,995.73
2022-08-26T02:41:08.087Z,995.73
2022-08-26T02:41:35.268Z,995.83
2022-08-26T02:41:54.815Z,995.83
2022-08-26T02:42:26.998Z,995.83
2022-08-26T02:42:59.015Z,995.73
2022-08-26T02:43:32.695Z,995.73
2022-08-26T02:44:03.322Z,995.33
2022-08-26T02:44:35.004Z,995.83
2022-08-26T02:45:07.242Z,995.83
2022-08-26T02:45:37.393Z,995.73
2022-08-26T02:45:54.883Z,995.73
2022-08-26T02:46:29.959Z,995.73
2022-08-26T02:46:59.049Z,995.63
2022-08-26T02:47:32.393Z,995.63
2022-08-26T02:48:03.216Z,995.63
2022-08-26T02:48:35.214Z,995.73
2022-08-26T02:49:07.793Z,995.73
2022-08-26T02:49:35.134Z,995.43
2022-08-26T02:49:54.861Z,995.43
2022-08-26T02:50:27.061Z,995.43
2022-08-26T02:51:00.001Z,995.63
2022-08-26T02:51:31.772Z,995.63
2022-08-26T02:52:03.494Z,995.53
2022-08-26T02:52:36.742Z,995.63
2022-08-26T02:53:07.768Z,995.63
2022-08-26T02:53:36.445Z,995.73
2022-08-26T02:53:54.797Z,995.73
2022-08-26T02:54:27.105Z,995.73
2022-08-26T02:54:59.092Z,995.53
2022-08-26T02:55:30.887Z,995.53
2022-08-26T02:56:03.313Z,995.53
2022-08-26T02:56:34.825Z,995.53
2022-08-26T02:57:07.197Z,995.53
2022-08-26T02:57:35.344Z,995.43
2022-08-26T02:57:54.870Z,995.43
2022-08-26T02:58:27.736Z,995.43
2022-08-26T02:58:58.878Z,995.33
2022-08-26T02:59:30.815Z,995.33
2022-08-26T03:00:04.301Z,995.53
2022-08-26T03:00:35.634Z,995.53
2022-08-26T03:01:07.189Z,995.53
2022-08-26T03:01:35.289Z,995.63
2022-08-26T03:01:56.070Z,995.63
2022-08-26T03:02:27.100Z,995.63
2022-08-26T03:02:58.902Z,995.43
2022-08-26T03:03:30.843Z,995.43
2022-08-26T03:04:03.356Z,995.43
2022-08-26T03:04:35.335Z,995.12
2022-08-26T03:05:07.122Z,995.12
2022-08-26T03:05:35.308Z,995.33
2022-08-26T03:05:54.837Z,995.33
2022-08-26T03:06:27.950Z,995.33
2022-08-26T03:06:59.400Z,995.43
2022-08-26T03:07:30.735Z,995.43
2022-08-26T03:08:04.038Z,995.33
2022-08-26T03:08:36.671Z,995.43
2022-08-26T03:09:07.314Z,995.43
2022-08-26T03:09:35.127Z,995.33
2022-08-26T03:09:54.797Z,995.33
2022-08-26T03:10:27.019Z,995.33
2022-08-26T03:11:01.534Z,995.33
2022-08-26T03:11:33.123Z,995.33
2022-08-26T03:12:03.359Z,995.63
2022-08-26T03:12:34.903Z,995.53
2022-08-26T03:13:07.862Z,995.53
2022-08-26T03:13:36.688Z,995.43
2022-08-26T03:13:54.819Z,995.43
2022-08-26T03:14:27.020Z,995.43
2022-08-26T03:14:58.904Z,995.43
2022-08-26T03:15:31.870Z,995.43
2022-08-26T03:16:03.277Z,995.33
2022-08-26T03:16:34.879Z,995.33
2022-08-26T03:17:07.823Z,995.33
2022-08-26T03:17:36.706Z,995.53
2022-08-26T03:17:54.768Z,995.53
2022-08-26T03:18:28.468Z,995.53
2022-08-26T03:18:58.925Z,995.33
2022-08-26T03:19:30.847Z,995.33
2022-08-26T03:20:03.237Z,995.33
2022-08-26T03:20:36.369Z,995.53
2022-08-26T03:21:07.162Z,995.53
2022-08-26T03:21:36.227Z,995.33
2022-08-26T03:21:57.803Z,995.33
2022-08-26T03:22:27.210Z,995.33
2022-08-26T03:22:59.776Z,995.22
2022-08-26T03:23:31.452Z,995.22
2022-08-26T03:24:03.297Z,995.53
2022-08-26T03:24:35.767Z,995.22
2022-08-26T03:25:07.172Z,995.22
2022-08-26T03:25:35.510Z,995.43
2022-08-26T03:25:54.830Z,995.43
2022-08-26T03:26:27.053Z,995.43
2022-08-26T03:26:58.790Z,995.43
2022-08-26T03:27:30.764Z,995.43
2022-08-26T03:28:03.109Z,995.43
2022-08-26T03:28:35.615Z,995.33
2022-08-26T03:29:07.825Z,995.33
2022-08-26T03:29:37.357Z,995.53
2022-08-26T03:29:54.926Z,995.53
2022-08-26T03:30:27.151Z,995.53
2022-08-26T03:30:58.905Z,995.43
2022-08-26T03:31:30.909Z,995.43
2022-08-26T03:32:03.304Z,995.63
2022-08-26T03:32:34.855Z,995.53
2022-08-26T03:33:07.443Z,995.53
2022-08-26T03:33:36.974Z,995.53
2022-08-26T03:33:59.497Z,995.53
2022-08-26T03:34:27.748Z,995.53
2022-08-26T03:34:58.860Z,995.53
2022-08-26T03:35:30.836Z,995.53
2022-08-26T03:36:03.339Z,995.43
2022-08-26T03:36:36.888Z,995.53
2022-08-26T03:37:07.683Z,995.53
2022-08-26T03:37:35.251Z,995.53
2022-08-26T03:37:54.799Z,995.53
2022-08-26T03:38:27.118Z,995.53
2022-08-26T03:38:58.751Z,995.73
2022-08-26T03:39:31.643Z,995.73
2022-08-26T03:40:03.200Z,995.63
2022-08-26T03:40:35.201Z,995.43
2022-08-26T03:41:07.148Z,995.43
2022-08-26T03:41:35.334Z,995.53
2022-08-26T03:41:54.789Z,995.53
2022-08-26T03:42:27.875Z,995.53
2022-08-26T03:42:58.817Z,995.53
2022-08-26T03:43:30.793Z,995.53
2022-08-26T03:44:03.228Z,995.53
2022-08-26T03:44:34.916Z,995.63
2022-08-26T03:45:07.428Z,995.63
2022-08-26T03:45:35.226Z,995.53
2022-08-26T03:45:54.743Z,995.53
2022-08-26T03:46:27.172Z,995.53
2022-08-26T03:46:58.840Z,995.53
2022-08-26T03:47:31.782Z,995.53
2022-08-26T03:48:03.314Z,995.63
2022-08-26T03:48:34.815Z,996.04
2022-08-26T03:49:07.272Z,996.04
2022-08-26T03:49:35.164Z,995.73
2022-08-26T03:49:54.573Z,995.73
2022-08-26T03:50:27.105Z,995.73
2022-08-26T03:50:58.943Z,995.63
2022-08-26T03:51:30.905Z,995.63
2022-08-26T03:52:03.202Z,995.73
2022-08-26T03:52:34.974Z,995.43
2022-08-26T03:53:07.527Z,995.43
2022-08-26T03:53:35.233Z,995.53
2022-08-26T03:53:55.466Z,995.53
2022-08-26T03:54:27.275Z,995.53
2022-08-26T03:54:58.952Z,995.73
2022-08-26T03:55:31.015Z,995.73
2022-08-26T03:56:03.161Z,995.73
2022-08-26T03:56:34.897Z,995.63
2022-08-26T03:57:07.260Z,995.63
2022-08-26T03:57:35.529Z,995.63
2022-08-26T03:57:54.794Z,995.63
2022-08-26T03:58:27.073Z,995.63
2022-08-26T03:58:59.939Z,995.73
2022-08-26T03:59:30.757Z,995.73
2022-08-26T04:00:03.452Z,995.53
2022-08-26T04:00:35.046Z,995.53
2022-08-26T04:01:07.346Z,995.53
2022-08-26T04:01:35.351Z,995.73
2022-08-26T04:01:54.836Z,995.73
2022-08-26T04:02:27.113Z,995.73
2022-08-26T04:02:59.077Z,995.53
2022-08-26T04:03:30.764Z,995.53
2022-08-26T04:04:03.722Z,995.63
2022-08-26T04:04:35.991Z,995.73
2022-08-26T04:05:07.412Z,995.73
2022-08-26T04:05:36.732Z,995.43
2022-08-26T04:05:55.504Z,995.43
2022-08-26T04:06:27.149Z,995.43
2022-08-26T04:06:59.087Z,995.43
2022-08-26T04:07:32.028Z,995.43
2022-08-26T04:08:03.061Z,995.22
2022-08-26T04:08:35.803Z,995.63
2022-08-26T04:09:07.901Z,995.63
2022-08-26T04:09:35.348Z,995.53
2022-08-26T04:09:54.939Z,995.53
2022-08-26T04:10:29.277Z,995.53
2022-08-26T04:10:58.780Z,995.63
2022-08-26T04:11:30.753Z,995.63
2022-08-26T04:12:03.303Z,995.43
2022-08-26T04:12:35.930Z,995.63
2022-08-26T04:13:07.604Z,995.63
2022-08-26T04:13:35.611Z,995.43
2022-08-26T04:13:54.558Z,995.43
2022-08-26T04:14:26.951Z,995.43
2022-08-26T04:14:58.762Z,995.43
2022-08-26T04:15:30.884Z,995.43
2022-08-26T04:16:03.340Z,995.63
2022-08-26T04:16:34.761Z,995.63
2022-08-26T04:17:07.555Z,995.63
2022-08-26T04:17:35.216Z,995.73
2022-08-26T04:17:56.032Z,995.73
2022-08-26T04:18:29.345Z,995.73
2022-08-26T04:19:01.997Z,995.53
2022-08-26T04:19:30.770Z,995.53
2022-08-26T04:20:03.318Z,995.33
2022-08-26T04:20:35.552Z,995.53
2022-08-26T04:21:07.841Z,995.53
2022-08-26T04:21:37.292Z,995.53
2022-08-26T04:21:54.692Z,995.53
2022-08-26T04:22:27.411Z,995.53
2022-08-26T04:22:58.808Z,995.43
2022-08-26T04:23:30.707Z,995.43
2022-08-26T04:24:03.505Z,995.53
2022-08-26T04:24:35.534Z,995.53
2022-08-26T04:25:08.223Z,995.53
2022-08-26T04:25:35.739Z,995.43
2022-08-26T04:25:55.507Z,995.43
2022-08-26T04:26:27.123Z,995.43
2022-08-26T04:26:45.108Z,995.43
2022-08-26T04:27:16.172Z,995.43
2022-08-26T04:27:35.491Z,995.53
2022-08-26T04:28:03.115Z,995.53
2022-08-26T04:28:37.391Z,995.63
2022-08-26T04:29:07.728Z,995.63
2022-08-26T04:29:37.537Z,995.63
2022-08-26T04:29:55.625Z,995.63
2022-08-26T04:30:27.112Z,995.63
2022-08-26T04:30:43.149Z,995.63
2022-08-26T04:31:14.909Z,995.63
2022-08-26T04:31:35.373Z,995.43
2022-08-26T04:32:03.228Z,995.43
2022-08-26T04:32:34.812Z,995.73
2022-08-26T04:33:12.945Z,995.73
2022-08-26T04:33:36.598Z,995.53
2022-08-26T04:33:54.669Z,995.53
2022-08-26T04:34:28.721Z,995.53
2022-08-26T04:34:58.787Z,995.53
2022-08-26T04:35:30.774Z,995.53
2022-08-26T04:36:03.229Z,995.63
2022-08-26T04:36:34.737Z,995.53
2022-08-26T04:37:07.366Z,995.53
2022-08-26T04:37:35.843Z,995.53
2022-08-26T04:37:55.040Z,995.53
2022-08-26T04:38:27.482Z,995.53
2022-08-26T04:38:58.926Z,995.63
2022-08-26T04:39:31.677Z,995.63
2022-08-26T04:40:03.615Z,995.63
2022-08-26T04:40:35.009Z,995.63
2022-08-26T04:41:07.413Z,995.63
2022-08-26T04:41:37.513Z,995.73
2022-08-26T04:41:54.919Z,995.73
2022-08-26T04:42:27.952Z,995.73
2022-08-26T04:42:59.950Z,995.63
2022-08-26T04:43:30.915Z,995.63
2022-08-26T04:44:03.608Z,995.63
2022-08-26T04:44:35.932Z,995.53
2022-08-26T04:45:10.271Z,995.53
2022-08-26T04:45:36.679Z,995.43
2022-08-26T04:45:54.871Z,995.43
2022-08-26T04:46:27.395Z,995.43
2022-08-26T04:47:00.137Z,995.53
2022-08-26T04:47:32.512Z,995.53
2022-08-26T04:48:03.501Z,995.43
2022-08-26T04:48:35.952Z,995.43
2022-08-26T04:49:07.686Z,995.43
2022-08-26T04:49:36.156Z,995.53
2022-08-26T04:49:54.852Z,995.53
2022-08-26T04:50:27.201Z,995.53
2022-08-26T04:50:44.284Z,995.53
2022-08-26T04:51:14.934Z,995.53
2022-08-26T04:51:35.186Z,995.33
2022-08-26T04:52:03.488Z,995.33
2022-08-26T04:52:37.445Z,995.63
2022-08-26T04:53:07.593Z,995.63
2022-08-26T04:53:36.854Z,995.43
2022-08-26T04:53:54.862Z,995.43
2022-08-26T04:54:27.358Z,995.43
2022-08-26T04:54:44.275Z,995.63
2022-08-26T04:55:15.949Z,995.63
2022-08-26T04:55:39.867Z,995.53
2022-08-26T04:56:03.433Z,995.53
2022-08-26T04:56:35.712Z,995.53
2022-08-26T04:57:08.171Z,995.53
2022-08-26T04:57:35.388Z,995.53
2022-08-26T04:57:54.792Z,995.53
2022-08-26T04:58:27.303Z,995.53
2022-08-26T04:58:43.255Z,995.53
2022-08-26T04:59:16.734Z,995.53
2022-08-26T04:59:39.150Z,995.53
2022-08-26T05:00:04.137Z,995.53
2022-08-26T05:00:34.852Z,995.73
2022-08-26T05:01:07.369Z,995.73
2022-08-26T05:01:39.614Z,995.94
2022-08-26T05:01:54.917Z,995.94
2022-08-26T05:02:27.273Z,995.94
2022-08-26T05:02:44.303Z,995.63
2022-08-26T05:03:14.843Z,995.63
2022-08-26T05:03:36.746Z,995.73
2022-08-26T05:04:04.958Z,995.73
2022-08-26T05:04:36.819Z,995.73
2022-08-26T05:05:09.181Z,995.73
2022-08-26T05:05:37.634Z,995.83
2022-08-26T05:05:54.908Z,995.83
2022-08-26T05:06:27.186Z,995.83
2022-08-26T05:06:43.278Z,995.73
2022-08-26T05:07:15.535Z,995.73
2022-08-26T05:07:35.601Z,995.63
2022-08-26T05:08:03.427Z,995.63
2022-08-26T05:08:34.864Z,995.73
2022-08-26T05:09:07.535Z,995.73
2022-08-26T05:09:38.196Z,995.83
2022-08-26T05:10:11.515Z,995.83
2022-08-26T05:10:35.263Z,995.83
2022-08-26T05:10:58.919Z,995.83
2022-08-26T05:11:31.121Z,995.83
2022-08-26T05:12:03.902Z,995.63
2022-08-26T05:12:35.181Z,995.63
2022-08-26T05:13:10.975Z,995.63
2022-08-26T05:13:35.434Z,995.73
2022-08-26T05:13:56.545Z,995.73
2022-08-26T05:14:27.263Z,995.73
2022-08-26T05:14:43.452Z,995.63
2022-08-26T05:15:15.605Z,995.63
2022-08-26T05:15:37.777Z,995.83
2022-08-26T05:16:03.529Z,995.83
2022-08-26T05:16:35.461Z,995.73
2022-08-26T05:17:07.653Z,995.73
2022-08-26T05:17:35.428Z,995.63
2022-08-26T05:17:54.795Z,995.63
2022-08-26T05:18:28.073Z,995.63
2022-08-26T05:19:00.042Z,995.63
2022-08-26T05:19:31.838Z,995.63
2022-08-26T05:20:03.336Z,995.73
2022-08-26T05:20:37.584Z,995.94
2022-08-26T05:21:07.975Z,995.94
2022-08-26T05:21:37.830Z,995.94
2022-08-26T05:21:54.883Z,995.94
2022-08-26T05:22:27.357Z,995.94
2022-08-26T05:22:43.420Z,995.73
2022-08-26T05:23:14.901Z,995.73
2022-08-26T05:23:35.339Z,995.63
2022-08-26T05:24:03.463Z,995.63
2022-08-26T05:24:34.909Z,995.83
2022-08-26T05:25:07.224Z,995.83
2022-08-26T05:25:38.177Z,995.63
2022-08-26T05:25:59.334Z,995.63
2022-08-26T05:26:27.892Z,995.63
2022-08-26T05:26:59.026Z,995.73
2022-08-26T05:27:30.960Z,995.73
2022-08-26T05:28:03.489Z,995.73
2022-08-26T05:28:37.077Z,995.83
2022-08-26T05:29:07.749Z,995.83
2022-08-26T05:29:40.113Z,995.73
2022-08-26T05:30:11.719Z,995.73
2022-08-26T05:30:36.781Z,995.83
2022-08-26T05:30:59.109Z,995.83
2022-08-26T05:31:30.955Z,995.83
2022-08-26T05:32:04.006Z,995.94
2022-08-26T05:32:34.969Z,995.73
2022-08-26T05:33:07.375Z,995.73
2022-08-26T05:33:37.176Z,995.94
2022-08-26T05:33:54.812Z,995.94
2022-08-26T05:34:30.115Z,995.94
2022-08-26T05:34:43.326Z,995.83
2022-08-26T05:35:14.848Z,995.83
2022-08-26T05:35:37.656Z,995.94
2022-08-26T05:36:03.375Z,995.94
2022-08-26T05:36:35.073Z,996.04
2022-08-26T05:37:07.420Z,996.04
2022-08-26T05:37:35.451Z,995.73
2022-08-26T05:37:54.776Z,995.73
2022-08-26T05:38:30.324Z,995.73
2022-08-26T05:38:44.051Z,995.94
2022-08-26T05:39:14.828Z,995.94
2022-08-26T05:39:37.766Z,995.94
2022-08-26T05:40:04.030Z,995.94
2022-08-26T05:40:35.709Z,995.83
2022-08-26T05:41:07.406Z,995.83
2022-08-26T05:41:36.745Z,995.94
2022-08-26T05:41:54.806Z,995.94
2022-08-26T05:42:27.389Z,995.94
2022-08-26T05:42:43.457Z,995.83
2022-08-26T05:43:14.814Z,995.83
2022-08-26T05:43:35.313Z,995.83
2022-08-26T05:44:03.476Z,995.83
2022-08-26T05:44:54.057Z,996.04
2022-08-26T05:45:07.458Z,996.04
2022-08-26T05:45:37.606Z,995.94
2022-08-26T05:45:54.828Z,995.94
2022-08-26T05:46:27.349Z,995.94
2022-08-26T05:46:44.117Z,996.14
2022-08-26T05:47:15.454Z,996.14
2022-08-26T05:47:35.369Z,996.14
2022-08-26T05:48:03.331Z,996.14
2022-08-26T05:48:35.042Z,995.83
2022-08-26T05:49:12.443Z,995.83
2022-08-26T05:49:35.311Z,996.04
2022-08-26T05:49:55.835Z,996.04
2022-08-26T05:50:27.314Z,996.04
2022-08-26T05:50:43.728Z,995.94
2022-08-26T05:51:14.808Z,995.94
2022-08-26T05:51:36.703Z,995.83
2022-08-26T05:52:03.514Z,995.83
2022-08-26T05:52:34.947Z,996.04
2022-08-26T05:53:09.341Z,996.04
2022-08-26T05:53:37.038Z,995.83
2022-08-26T05:53:55.096Z,995.83
2022-08-26T05:54:27.284Z,995.83
2022-08-26T05:54:43.408Z,995.83
2022-08-26T05:55:14.847Z,995.83
2022-08-26T05:55:35.996Z,995.94
2022-08-26T05:56:03.401Z,995.94
2022-08-26T05:56:35.257Z,995.94
2022-08-26T05:57:07.410Z,995.94
2022-08-26T05:57:40.359Z,995.83
2022-08-26T05:57:54.929Z,995.83
2022-08-26T05:58:27.227Z,995.83
2022-08-26T05:58:43.303Z,995.83
2022-08-26T05:59:14.943Z,995.83
2022-08-26T05:59:35.426Z,995.94
2022-08-26T06:00:03.526Z,995.94
2022-08-26T06:00:34.924Z,995.83
2022-08-26T06:01:09.077Z,995.83
2022-08-26T06:01:36.774Z,995.94
2022-08-26T06:01:55.172Z,995.94
2022-08-26T06:02:27.286Z,995.94
2022-08-26T06:02:44.414Z,996.04
2022-08-26T06:03:15.588Z,996.04
2022-08-26T06:03:35.843Z,995.83
2022-08-26T06:04:03.972Z,995.83
2022-08-26T06:04:35.584Z,995.83
2022-08-26T06:05:08.023Z,995.94
2022-08-26T06:05:38.384Z,995.94